createdAt,value
2023-03-27T00:01:13.105Z,86.70
2023-03-27T00:03:40.951Z,86.80
2023-03-27T00:06:16.639Z,87.30
2023-03-27T00:08:46.307Z,87.60
2023-03-27T00:11:14.669Z,88.00
2023-03-27T00:13:49.647Z,86.40
2023-03-27T00:16:23.892Z,86.50
2023-03-27T00:18:51.481Z,86.10
2023-03-27T00:21:19.227Z,85.20
2023-03-27T00:23:46.749Z,85.10
2023-03-27T00:26:14.272Z,85.70
2023-03-27T00:28:42.083Z,86.80
2023-03-27T00:31:14.961Z,85.50
2023-03-27T00:33:42.701Z,84.40
2023-03-27T00:36:10.643Z,84.40
2023-03-27T00:38:39.631Z,84.00
2023-03-27T00:41:08.171Z,82.90
2023-03-27T00:43:42.482Z,83.80
2023-03-27T00:46:22.785Z,83.30
2023-03-27T00:48:52.850Z,82.40
2023-03-27T00:51:23.714Z,82.90
2023-03-27T00:53:52.827Z,82.70
2023-03-27T00:56:21.734Z,82.40
2023-03-27T00:58:57.211Z,81.10
2023-03-27T01:01:27.606Z,81.20
2023-03-27T01:03:59.417Z,80.60
2023-03-27T01:06:27.288Z,79.00
2023-03-27T01:08:54.686Z,79.00
2023-03-27T01:11:46.709Z,79.50
2023-03-27T01:14:38.240Z,80.50
2023-03-27T01:17:38.159Z,80.10
2023-03-27T01:20:32.342Z,80.40
2023-03-27T01:23:58.587Z,79.20
2023-03-27T01:26:18.678Z,78.60
2023-03-27T01:29:37.637Z,77.20
2023-03-27T01:32:29.529Z,79.00
2023-03-27T01:35:27.349Z,77.90
2023-03-27T01:38:25.146Z,77.50
2023-03-27T01:41:08.560Z,77.10
2023-03-27T01:43:48.666Z,77.80
2023-03-27T01:46:29.727Z,77.60
2023-03-27T01:49:02.278Z,76.00
2023-03-27T01:51:36.362Z,76.30
2023-03-27T01:54:24.803Z,76.80
2023-03-27T01:57:02.285Z,76.30
2023-03-27T01:59:35.770Z,76.50
2023-03-27T02:02:14.100Z,76.80
2023-03-27T02:04:46.973Z,76.50
2023-03-27T02:07:20.756Z,77.50
2023-03-27T02:09:53.985Z,75.90
2023-03-27T02:12:29.836Z,75.10
2023-03-27T02:15:24.022Z,75.30
2023-03-27T02:18:05.487Z,73.20
2023-03-27T02:20:34.565Z,74.20
2023-03-27T02:23:02.204Z,74.90
2023-03-27T02:25:40.998Z,74.80
2023-03-27T02:28:14.581Z,73.90
2023-03-27T02:31:06.787Z,74.00
2023-03-27T02:33:47.858Z,75.20
2023-03-27T02:36:30.215Z,73.60
2023-03-27T02:39:11.622Z,73.40
2023-03-27T02:41:58.287Z,72.70
2023-03-27T02:45:06.849Z,73.20
2023-03-27T02:47:36.883Z,73.10
2023-03-27T02:50:13.526Z,73.20
2023-03-27T02:52:48.082Z,74.20
2023-03-27T02:55:35.468Z,74.20
2023-03-27T02:58:08.056Z,73.30
2023-03-27T03:01:00.885Z,73.50
2023-03-27T03:03:53.468Z,73.60
2023-03-27T03:06:36.564Z,73.70
2023-03-27T03:09:05.888Z,73.70
2023-03-27T03:11:39.331Z,73.70
2023-03-27T03:14:06.632Z,72.80
2023-03-27T03:16:34.424Z,72.80
2023-03-27T03:19:03.134Z,73.20
2023-03-27T03:21:31.862Z,73.70
2023-03-27T03:24:00.105Z,73.60
2023-03-27T03:26:27.996Z,73.30
2023-03-27T03:29:00.084Z,73.60
2023-03-27T03:31:42.938Z,72.90
2023-03-27T03:34:18.274Z,72.70
2023-03-27T03:36:49.552Z,73.00
2023-03-27T03:39:22.554Z,72.70
2023-03-27T03:41:51.011Z,72.90
2023-03-27T03:44:19.188Z,73.00
2023-03-27T03:46:46.579Z,72.60
2023-03-27T03:49:17.409Z,73.20
2023-03-27T03:51:44.819Z,72.30
2023-03-27T03:54:12.196Z,72.60
2023-03-27T03:56:43.150Z,72.70
2023-03-27T03:59:11.765Z,72.60
2023-03-27T04:01:58.309Z,72.90
2023-03-27T04:04:30.800Z,72.80
2023-03-27T04:07:07.077Z,72.70
2023-03-27T04:09:38.464Z,72.80
2023-03-27T04:12:09.849Z,73.20
2023-03-27T04:14:54.361Z,73.50
2023-03-27T04:17:40.671Z,72.40
2023-03-27T04:20:12.927Z,73.20
2023-03-27T04:22:48.461Z,73.60
2023-03-27T04:25:17.848Z,73.40
2023-03-27T04:27:46.130Z,73.50
2023-03-27T04:30:23.803Z,73.20
2023-03-27T04:33:18.336Z,73.30
2023-03-27T04:36:08.839Z,73.30
2023-03-27T04:38:45.474Z,72.50
2023-03-27T04:41:15.206Z,73.50
2023-03-27T04:43:42.894Z,72.60
2023-03-27T04:46:10.209Z,73.00
2023-03-27T04:48:39.208Z,72.40
2023-03-27T04:51:19.961Z,72.40
2023-03-27T04:53:47.238Z,73.50
2023-03-27T04:56:15.200Z,73.10
2023-03-27T04:58:46.304Z,72.80
2023-03-27T05:01:17.498Z,73.00
2023-03-27T05:04:03.923Z,72.90
2023-03-27T05:06:41.214Z,72.00
2023-03-27T05:09:13.564Z,72.60
2023-03-27T05:11:41.123Z,72.90
2023-03-27T05:14:10.459Z,71.60
2023-03-27T05:16:40.362Z,71.80
2023-03-27T05:19:07.773Z,70.70
2023-03-27T05:21:42.445Z,71.70
2023-03-27T05:24:11.273Z,72.10
2023-03-27T05:26:39.794Z,73.20
2023-03-27T05:29:08.952Z,72.20
2023-03-27T05:31:40.241Z,71.80
2023-03-27T05:34:27.078Z,72.80
2023-03-27T05:36:57.719Z,72.90
2023-03-27T05:39:26.253Z,73.00
2023-03-27T05:41:54.061Z,73.00
2023-03-27T05:44:23.558Z,73.60
2023-03-27T05:46:51.449Z,73.20
2023-03-27T05:49:24.859Z,73.80
2023-03-27T05:51:58.116Z,74.10
2023-03-27T05:54:25.558Z,74.20
2023-03-27T05:56:57.392Z,73.70
2023-03-27T05:59:25.902Z,75.00
2023-03-27T06:01:58.829Z,74.60
2023-03-27T06:04:34.778Z,74.90
2023-03-27T06:07:07.266Z,75.50
2023-03-27T06:09:36.240Z,75.30
2023-03-27T06:12:23.913Z,74.90
2023-03-27T06:14:57.370Z,74.20
2023-03-27T06:17:57.468Z,74.20
2023-03-27T06:20:26.208Z,74.50
2023-03-27T06:22:56.768Z,74.30
2023-03-27T06:31:42.970Z,76.30
2023-03-27T06:34:19.440Z,76.50
2023-03-27T06:36:54.417Z,76.00
2023-03-27T06:39:22.005Z,77.50
2023-03-27T06:41:52.563Z,76.80
2023-03-27T06:44:27.470Z,76.70
2023-03-27T06:47:16.090Z,77.20
2023-03-27T06:50:02.335Z,77.40
2023-03-27T06:52:34.430Z,78.00
2023-03-27T06:55:25.911Z,77.80
2023-03-27T06:57:56.852Z,77.50
2023-03-27T07:00:28.902Z,78.30
2023-03-27T07:03:22.766Z,78.00
2023-03-27T07:06:09.177Z,78.00
2023-03-27T07:09:00.124Z,77.70
2023-03-27T07:11:29.473Z,77.30
2023-03-27T07:14:01.620Z,78.00
2023-03-27T07:16:32.914Z,78.00
2023-03-27T07:19:02.526Z,78.40
2023-03-27T07:21:32.775Z,77.10
2023-03-27T07:24:00.867Z,76.70
2023-03-27T07:26:34.108Z,73.20
2023-03-27T07:29:10.950Z,73.90
2023-03-27T07:31:55.339Z,70.90
2023-03-27T07:34:31.769Z,68.80
2023-03-27T07:37:22.623Z,69.80
2023-03-27T07:40:13.777Z,67.60
2023-03-27T07:42:46.027Z,67.80
2023-03-27T07:45:22.013Z,67.70
2023-03-27T07:47:52.127Z,66.20
2023-03-27T07:50:21.666Z,66.90
2023-03-27T07:52:49.629Z,65.10
2023-03-27T07:55:18.871Z,63.40
2023-03-27T07:58:01.424Z,63.10
2023-03-27T08:00:35.158Z,60.40
2023-03-27T08:03:14.008Z,56.80
2023-03-27T08:05:56.535Z,56.30
2023-03-27T08:08:26.381Z,56.00
2023-03-27T08:10:59.812Z,54.80
2023-03-27T08:13:31.267Z,52.90
2023-03-27T08:16:08.693Z,51.70
2023-03-27T08:18:37.973Z,50.10
2023-03-27T08:21:08.582Z,49.70
2023-03-27T08:23:37.516Z,48.80
2023-03-27T08:26:23.858Z,48.90
2023-03-27T08:28:56.421Z,48.60
2023-03-27T08:31:30.915Z,46.70
2023-03-27T08:34:04.431Z,45.40
2023-03-27T08:36:45.627Z,45.30
2023-03-27T08:39:14.650Z,44.60
2023-03-27T08:41:55.196Z,44.40
2023-03-27T08:44:35.099Z,41.70
2023-03-27T08:47:28.098Z,43.70
2023-03-27T08:50:07.102Z,44.70
2023-03-27T08:52:50.254Z,43.70
2023-03-27T08:55:46.952Z,41.70
2023-03-27T08:58:34.535Z,43.50
2023-03-27T09:01:30.239Z,39.20
2023-03-27T09:04:19.913Z,41.80
2023-03-27T09:07:06.530Z,39.20
2023-03-27T09:10:09.307Z,39.70
2023-03-27T09:13:22.922Z,41.40
2023-03-27T09:16:11.656Z,39.40
2023-03-27T09:18:44.340Z,37.80
2023-03-27T09:21:22.947Z,37.30
2023-03-27T09:23:54.084Z,37.40
2023-03-27T09:27:06.617Z,35.70
2023-03-27T09:29:45.475Z,35.80
2023-03-27T09:32:43.693Z,36.30
2023-03-27T09:35:15.970Z,36.60
2023-03-27T09:37:44.474Z,34.60
2023-03-27T09:40:23.539Z,36.60
2023-03-27T09:42:54.577Z,36.00
2023-03-27T09:45:23.048Z,36.30
2023-03-27T09:48:07.572Z,35.90
2023-03-27T09:50:44.543Z,37.40
2023-03-27T09:53:30.723Z,36.10
2023-03-27T09:56:16.394Z,36.70
2023-03-27T09:58:53.829Z,38.20
2023-03-27T10:01:37.754Z,38.10
2023-03-27T10:04:22.891Z,38.60
2023-03-27T10:07:01.730Z,39.10
2023-03-27T10:09:43.093Z,39.30
2023-03-27T10:12:18.705Z,39.70
2023-03-27T10:14:52.687Z,38.90
2023-03-27T10:17:27.315Z,39.10
2023-03-27T10:20:11.191Z,40.00
2023-03-27T10:22:43.525Z,40.10
2023-03-27T10:25:27.167Z,38.60
2023-03-27T10:28:14.681Z,39.10
2023-03-27T10:31:33.775Z,39.50
2023-03-27T10:34:37.494Z,41.10
2023-03-27T10:37:30.426Z,41.30
2023-03-27T10:40:21.412Z,40.80
2023-03-27T10:43:01.616Z,41.00
2023-03-27T10:45:32.365Z,42.90
2023-03-27T10:48:01.878Z,43.00
2023-03-27T10:50:53.132Z,41.70
2023-03-27T11:19:46.441Z,41.90
2023-03-27T11:22:43.535Z,41.80
2023-03-27T11:25:31.822Z,42.90
2023-03-27T11:28:21.170Z,43.90
2023-03-27T11:30:56.081Z,44.90
2023-03-27T11:33:43.881Z,44.00
2023-03-27T11:36:32.310Z,44.60
2023-03-27T11:39:22.550Z,44.60
2023-03-27T11:41:57.709Z,43.90
2023-03-27T11:44:26.456Z,44.50
2023-03-27T12:08:48.372Z,55.10
2023-03-27T12:37:31.509Z,59.20
2023-03-27T12:40:02.495Z,56.00
2023-03-27T12:42:49.725Z,56.60
2023-03-27T12:45:23.960Z,57.20
2023-03-27T13:26:33.376Z,55.60
2023-03-27T13:29:25.462Z,54.30
2023-03-27T13:32:07.454Z,54.10
2023-03-27T13:35:21.679Z,54.00
2023-03-27T13:37:49.734Z,53.70
2023-03-27T13:40:27.131Z,53.90
2023-03-27T13:43:30.881Z,54.30
2023-03-27T13:46:16.201Z,54.40
2023-03-27T13:49:18.021Z,55.10
2023-03-27T13:52:15.944Z,54.00
2023-03-27T13:54:50.068Z,53.70
2023-03-27T13:57:29.953Z,53.90
2023-03-27T14:00:38.445Z,53.50
2023-03-27T14:03:30.936Z,53.20
2023-03-27T14:06:27.512Z,53.80
2023-03-27T14:09:31.844Z,53.50
2023-03-27T14:12:41.199Z,53.00
2023-03-27T14:15:38.842Z,52.40
2023-03-27T14:18:59.766Z,51.70
2023-03-27T14:21:38.411Z,52.00
2023-03-27T14:24:28.818Z,51.30
2023-03-27T14:27:10.121Z,51.90
2023-03-27T14:29:38.109Z,51.00
2023-03-27T14:32:06.698Z,50.70
2023-03-27T14:34:47.365Z,51.40
2023-03-27T14:37:38.845Z,52.10
2023-03-27T14:40:28.319Z,52.00
2023-03-27T14:43:01.133Z,53.20
2023-03-27T14:45:39.345Z,53.30
2023-03-27T14:48:10.011Z,53.10
2023-03-27T14:50:51.662Z,52.90
2023-03-27T14:53:28.373Z,53.30
2023-03-27T14:56:11.900Z,53.10
2023-03-27T14:58:59.846Z,53.80
2023-03-27T15:01:36.037Z,53.90
2023-03-27T15:04:07.489Z,53.20
2023-03-27T15:06:37.700Z,54.10
2023-03-27T15:09:19.390Z,55.00
2023-03-27T15:12:05.712Z,55.60
2023-03-27T15:14:35.491Z,56.90
2023-03-27T15:17:14.901Z,58.20
2023-03-27T15:19:50.775Z,59.30
2023-03-27T15:22:27.612Z,60.20
2023-03-27T15:25:17.843Z,62.10
2023-03-27T15:27:53.139Z,60.80
2023-03-27T15:30:45.061Z,61.90
2023-03-27T15:33:23.206Z,61.30
2023-03-27T15:35:56.118Z,62.50
2023-03-27T15:38:29.121Z,62.30
2023-03-27T15:41:14.900Z,62.50
2023-03-27T15:43:43.970Z,61.30
2023-03-27T15:46:19.071Z,61.50
2023-03-27T15:48:51.700Z,58.60
2023-03-27T15:51:19.309Z,58.90
2023-03-27T15:53:49.595Z,58.40
2023-03-27T15:56:36.193Z,56.10
2023-03-27T15:59:07.464Z,56.20
2023-03-27T16:01:52.280Z,54.80
2023-03-27T16:04:25.872Z,54.60
2023-03-27T16:07:17.880Z,54.80
2023-03-27T16:09:56.557Z,54.60
2023-03-27T16:12:32.236Z,54.50
2023-03-27T16:15:00.969Z,55.10
2023-03-27T16:17:32.400Z,53.80
2023-03-27T16:20:07.386Z,54.60
2023-03-27T16:22:37.339Z,55.30
2023-03-27T16:25:10.454Z,54.70
2023-03-27T16:27:50.856Z,54.90
2023-03-27T16:30:29.648Z,55.40
2023-03-27T16:32:57.897Z,55.60
2023-03-27T16:35:27.200Z,54.80
2023-03-27T16:37:55.465Z,53.60
2023-03-27T16:40:23.604Z,53.30
2023-03-27T16:42:51.564Z,53.20
2023-03-27T16:46:13.087Z,52.70
2023-03-27T16:48:40.782Z,53.40
2023-03-27T16:51:08.131Z,52.50
2023-03-27T16:53:35.571Z,53.00
2023-03-27T16:56:02.843Z,53.80
2023-03-27T16:58:31.992Z,53.00
2023-03-27T17:00:59.413Z,53.00
2023-03-27T17:03:26.779Z,53.10
2023-03-27T17:05:59.843Z,54.00
2023-03-27T17:08:30.085Z,53.90
2023-03-27T17:11:10.526Z,54.50
2023-03-27T17:13:42.387Z,54.50
2023-03-27T17:16:10.695Z,54.70
2023-03-27T17:18:38.037Z,54.90
2023-03-27T17:21:05.706Z,55.50
2023-03-27T17:23:33.367Z,55.80
2023-03-27T17:26:03.462Z,56.00
2023-03-27T17:28:31.529Z,56.90
2023-03-27T17:31:04.497Z,56.90
2023-03-27T17:33:33.935Z,57.50
2023-03-27T17:36:06.509Z,57.20
2023-03-27T17:38:34.654Z,57.70
2023-03-27T17:41:03.477Z,58.50
2023-03-27T17:43:30.817Z,59.00
2023-03-27T17:45:58.520Z,58.70
2023-03-27T17:48:25.984Z,58.50
2023-03-27T17:51:05.551Z,58.60
2023-03-27T17:53:37.270Z,58.80
2023-03-27T17:56:04.929Z,58.60
2023-03-27T17:58:34.019Z,58.90
2023-03-27T18:01:11.417Z,59.30
2023-03-27T18:03:38.774Z,59.40
2023-03-27T18:06:06.436Z,59.30
2023-03-27T18:08:34.263Z,59.20
2023-03-27T18:11:01.613Z,59.50
2023-03-27T18:13:31.019Z,59.60
2023-03-27T18:15:58.602Z,60.00
2023-03-27T18:18:26.482Z,60.00
2023-03-27T18:20:54.807Z,62.00
2023-03-27T18:23:22.245Z,62.20
2023-03-27T18:26:16.502Z,62.50
2023-03-27T18:28:44.032Z,62.40
2023-03-27T18:31:13.162Z,62.80
2023-03-27T18:33:40.778Z,62.90
2023-03-27T18:36:12.444Z,63.70
2023-03-27T18:38:42.971Z,63.50
2023-03-27T18:41:11.794Z,63.60
2023-03-27T18:43:39.418Z,64.20
2023-03-27T18:46:07.898Z,64.10
2023-03-27T18:48:35.713Z,65.00
2023-03-27T18:51:05.647Z,64.60
2023-03-27T18:53:32.947Z,65.00
2023-03-27T18:56:01.574Z,64.90
2023-03-27T18:58:29.773Z,65.30
2023-03-27T19:00:57.521Z,66.30
2023-03-27T19:03:30.677Z,66.00
2023-03-27T19:06:01.174Z,65.90
2023-03-27T19:08:28.577Z,66.50
2023-03-27T19:10:57.306Z,66.50
2023-03-27T19:13:44.178Z,66.60
2023-03-27T19:16:32.886Z,67.30
2023-03-27T19:19:19.199Z,66.80
2023-03-27T19:21:53.349Z,66.60
2023-03-27T19:24:36.448Z,67.40
2023-03-27T19:27:04.166Z,67.50
2023-03-27T19:29:32.012Z,67.30
2023-03-27T19:31:59.706Z,67.40
2023-03-27T19:34:40.085Z,67.40
2023-03-27T19:37:10.865Z,67.30
2023-03-27T19:39:38.232Z,67.20
2023-03-27T19:42:06.023Z,67.80
2023-03-27T19:44:37.956Z,68.00
2023-03-27T19:47:06.103Z,67.70
2023-03-27T19:49:33.660Z,68.20
2023-03-27T21:53:00.942Z,72.40
2023-03-27T21:55:28.544Z,71.70
2023-03-27T21:57:56.527Z,71.90
2023-03-27T22:00:25.009Z,72.00
2023-03-27T22:02:53.131Z,72.60
2023-03-27T22:05:21.909Z,73.50
2023-03-27T22:07:49.935Z,73.30
2023-03-27T22:10:17.755Z,73.00
2023-03-27T22:12:45.303Z,73.10
2023-03-27T22:15:12.791Z,72.80
2023-03-27T22:17:41.100Z,73.50
2023-03-27T22:20:09.544Z,73.40
2023-03-27T22:22:38.276Z,73.40
2023-03-27T22:25:06.385Z,73.10
2023-03-27T22:27:34.487Z,73.50
2023-03-27T22:30:02.064Z,73.50
2023-03-27T22:32:31.053Z,73.80
2023-03-27T22:34:58.740Z,73.70
2023-03-27T22:37:26.324Z,73.80
2023-03-27T22:39:53.833Z,73.40
2023-03-27T22:42:21.760Z,74.50
2023-03-27T22:44:49.306Z,74.00
2023-03-27T22:47:17.880Z,74.10
2023-03-27T22:49:45.472Z,73.60
2023-03-27T22:52:13.319Z,73.60
2023-03-27T22:54:41.339Z,73.80
2023-03-27T22:57:09.368Z,73.70
2023-03-27T22:59:37.213Z,73.70
2023-03-27T23:02:04.943Z,74.10
2023-03-27T23:04:32.840Z,73.80
2023-03-27T23:07:01.631Z,74.20
2023-03-27T23:09:29.311Z,74.00
2023-03-27T23:11:56.970Z,73.60
2023-03-27T23:14:25.456Z,73.90
2023-03-27T23:16:53.520Z,74.10
2023-03-27T23:19:21.456Z,73.70
2023-03-27T23:21:49.273Z,74.00
2023-03-27T23:24:16.998Z,74.40
2023-03-27T23:26:45.385Z,73.90
2023-03-27T23:29:42.778Z,74.50
2023-03-27T23:32:10.559Z,74.20
2023-03-27T23:34:38.622Z,74.30
2023-03-27T23:37:06.208Z,74.30
2023-03-27T23:39:33.817Z,74.70
2023-03-27T23:42:01.276Z,74.20
2023-03-27T23:44:29.152Z,74.60
2023-03-27T23:46:56.626Z,74.40
2023-03-27T23:49:24.176Z,74.10
2023-03-27T23:51:51.692Z,74.70
2023-03-27T23:54:19.663Z,74.70
2023-03-27T23:56:47.244Z,74.70
2023-03-27T23:59:14.910Z,74.80
